Time;durP1;ratioP1;P1;durP2;ratioP2;P2;SDS_P1;SDS_P2;PMS_P1;PMS_P2;Temp;Humidity;BMP_temperature;BMP_pressure;BME280_temperature;BME280_humidity;BME280_pressure;Samples;Min_cycle;Max_cycle;Signal;HPM_P1;HPM_P2
2021/06/19 00:01:27;;;;;;;14.55;9.80;;;;;;;20.95;55.68;98753.30;512913;1088;103793;-43
2021/06/19 00:11:33;;;;;;;;;;;;;;;20.84;56.02;98755.37;512736;1089;103599;-43
2021/06/19 00:31:49;;;;;;;11.90;10.15;;;;;;;20.41;56.33;98748.52;512678;1088;103150;-44
2021/06/19 00:41:56;;;;;;;11.25;9.28;;;;;;;20.24;57.05;98746.29;512863;1089;103118;-45
2021/06/19 00:52:05;;;;;;;12.83;9.68;;;;;;;19.98;57.51;98750.41;512820;1089;103128;-42
2021/06/19 01:02:13;;;;;;;11.10;9.30;;;;;;;20.18;57.70;98740.20;512848;1088;103142;-44
2021/06/19 01:22:31;;;;;;;19.00;11.10;;;;;;;20.39;57.78;98746.09;513698;1088;103377;-42
2021/06/19 01:32:40;;;;;;;14.40;11.00;;;;;;;20.06;58.14;98737.13;513180;1089;103099;-43
2021/06/19 01:42:51;;;;;;;14.33;12.70;;;;;;;19.84;58.17;98747.61;512837;1088;103116;-42
2021/06/19 01:53:00;;;;;;;18.63;12.80;;;;;;;19.73;58.30;98744.27;512920;1088;103099;-42
2021/06/19 02:03:07;;;;;;;13.00;10.57;;;;;;;19.33;58.87;98737.42;512872;1089;103466;-42
2021/06/19 02:13:15;;;;;;;19.15;13.05;;;;;;;19.15;59.31;98738.93;512953;1089;103096;-43
2021/06/19 02:23:21;;;;;;;19.70;14.90;;;;;;;18.60;60.00;98743.66;512770;1089;103119;-42
2021/06/19 02:33:29;;;;;;;20.27;12.37;;;;;;;18.07;60.30;98745.33;512862;1089;103212;-43
2021/06/19 02:43:36;;;;;;;18.05;12.50;;;;;;;17.95;61.11;98740.28;513085;1088;103101;-44
2021/06/19 02:53:43;;;;;;;17.33;12.67;;;;;;;17.98;61.25;98738.93;512813;1089;103453;-43
2021/06/19 03:03:52;;;;;;;14.50;12.03;;;;;;;17.86;61.72;98738.47;512638;1088;103100;-43
2021/06/19 03:13:59;;;;;;;12.70;11.40;;;;;;;20.15;60.95;98746.16;512793;1089;103504;-43
2021/06/19 03:24:05;;;;;;;14.17;11.17;;;;;;;22.76;59.01;98737.58;512919;1089;103195;-43
2021/06/19 03:34:13;;;;;;;11.65;9.48;;;;;;;25.01;56.24;98718.17;512945;1089;103129;-43
2021/06/19 03:44:22;;;;;;;16.43;10.10;;;;;;;26.59;54.20;98725.95;512792;1090;103129;-41
2021/06/19 03:54:29;;;;;;;15.03;10.20;;;;;;;27.90;51.57;98726.88;513024;1089;103113;-42
2021/06/19 04:04:37;;;;;;;11.07;9.17;;;;;;;28.65;50.61;98748.16;512815;1088;103493;-43
2021/06/19 04:14:46;;;;;;;16.35;9.55;;;;;;;29.43;48.99;98733.89;512808;1088;103142;-43
2021/06/19 04:24:54;;;;;;;13.20;9.65;;;;;;;30.20;47.27;98727.92;512981;1090;103086;-43
2021/06/19 04:35:02;;;;;;;13.60;7.80;;;;;;;30.38;45.42;98715.45;512936;1088;103118;-44
2021/06/19 04:45:13;;;;;;;21.50;10.03;;;;;;;30.26;43.66;98723.77;513025;1088;104266;-46
2021/06/19 04:55:21;;;;;;;15.30;9.37;;;;;;;29.47;43.40;98723.91;512911;1088;103144;-43
2021/06/19 05:05:29;;;;;;;11.00;7.70;;;;;;;28.74;43.06;98738.69;512811;1088;103167;-44
2021/06/19 05:15:37;;;;;;;11.53;9.17;;;;;;;28.63;42.96;98732.17;513023;1088;103454;-44
2021/06/19 05:25:44;;;;;;;16.90;8.50;;;;;;;28.74;44.03;98733.25;512973;1089;103514;-45
2021/06/19 05:35:51;;;;;;;7.70;6.90;;;;;;;28.19;44.16;98733.98;512944;1089;103445;-42
2021/06/19 05:45:59;;;;;;;9.65;8.20;;;;;;;28.18;44.17;98726.17;512810;1088;104257;-44
2021/06/19 05:56:08;;;;;;;9.97;7.47;;;;;;;28.66;44.33;98730.69;512851;1089;103098;-42
2021/06/19 06:06:15;;;;;;;12.37;8.27;;;;;;;28.86;43.59;98729.69;512747;1088;103098;-41
2021/06/19 06:16:23;;;;;;;13.00;7.00;;;;;;;28.64;42.81;98739.20;512870;1089;103140;-44
2021/06/19 06:36:37;;;;;;;8.93;6.43;;;;;;;29.19;42.27;98729.41;513086;1089;103094;-44
2021/06/19 06:46:45;;;;;;;18.83;8.17;;;;;;;29.03;42.39;98723.14;512885;1088;103208;-43
2021/06/19 06:56:53;;;;;;;10.23;8.00;;;;;;;28.90;42.52;98732.53;513131;1088;103492;-44
2021/06/19 07:07:05;;;;;;;12.85;7.30;;;;;;;29.17;42.94;98734.41;512952;1090;103089;-43
2021/06/19 07:17:11;;;;;;;12.77;8.00;;;;;;;29.30;42.42;98737.84;512985;1088;103173;-45
2021/06/19 07:27:19;;;;;;;6.80;6.20;;;;;;;29.08;42.55;98722.88;513041;1088;103117;-46
2021/06/19 07:37:27;;;;;;;8.00;5.47;;;;;;;29.65;43.23;98721.61;512830;1089;103097;-45
2021/06/19 07:47:35;;;;;;;11.47;5.03;;;;;;;29.77;41.97;98713.31;512760;1088;103098;-42
2021/06/19 07:57:43;;;;;;;8.40;5.70;;;;;;;30.12;41.08;98707.91;512999;1089;103121;-44
2021/06/19 08:07:50;;;;;;;10.73;6.40;;;;;;;30.60;40.88;98704.97;512797;1088;103171;-43
2021/06/19 08:17:58;;;;;;;11.40;5.95;;;;;;;30.82;38.95;98685.14;513256;1089;103143;-44
2021/06/19 08:28:04;;;;;;;11.60;5.50;;;;;;;30.87;38.10;98682.11;513020;1089;103139;-44
2021/06/19 08:38:12;;;;;;;6.67;4.93;;;;;;;30.86;38.41;98691.45;512956;1089;103499;-43
2021/06/19 08:48:20;;;;;;;6.97;5.67;;;;;;;31.20;36.18;98683.47;512912;1088;103456;-43
2021/06/19 08:58:28;;;;;;;8.15;4.90;;;;;;;31.32;36.79;98686.02;512858;1088;103173;-44
2021/06/19 09:08:35;;;;;;;5.53;4.53;;;;;;;30.92;37.35;98689.20;512863;1088;103110;-42
2021/06/19 09:18:43;;;;;;;7.10;4.97;;;;;;;30.62;37.41;98698.03;513206;1088;103227;-45
2021/06/19 09:29:07;;;;;;;6.07;4.67;;;;;;;30.67;36.79;98697.73;512868;1088;103098;-42
2021/06/19 09:39:18;;;;;;;7.98;4.25;;;;;;;30.88;36.13;98683.69;512893;1090;103119;-43
2021/06/19 09:49:32;;;;;;;6.53;4.30;;;;;;;31.33;35.53;98682.92;512873;1088;103103;-43
2021/06/19 09:59:40;;;;;;;4.57;2.87;;;;;;;31.24;34.76;98685.13;512870;1089;103415;-41
2021/06/19 10:09:47;;;;;;;4.20;3.10;;;;;;;31.27;35.15;98667.22;512889;1088;103130;-43
2021/06/19 10:19:56;;;;;;;3.93;3.50;;;;;;;31.55;35.00;98661.40;512783;1088;103031;-42
2021/06/19 10:30:05;;;;;;;5.10;3.20;;;;;;;31.31;34.15;98657.13;512842;1089;103510;-44
2021/06/19 10:40:21;;;;;;;6.50;3.80;;;;;;;31.63;34.16;98652.14;513016;1088;103126;-44
2021/06/19 10:50:29;;;;;;;5.23;3.00;;;;;;;31.54;33.59;98646.16;512871;1088;103143;-44
2021/06/19 11:11:04;;;;;;;7.37;2.97;;;;;;;31.53;34.62;98642.64;512776;1088;103128;-44
2021/06/19 11:21:12;;;;;;;4.93;2.90;;;;;;;31.86;33.09;98614.60;512792;1088;103067;-42
2021/06/19 11:31:23;;;;;;;5.73;3.43;;;;;;;31.87;32.96;98618.91;512755;1089;103274;-44
2021/06/19 11:41:30;;;;;;;9.03;3.33;;;;;;;32.03;32.80;98602.31;512902;1089;103124;-44
2021/06/19 11:51:38;;;;;;;3.87;2.23;;;;;;;31.88;32.30;98598.61;512841;1088;103034;-43
2021/06/19 12:11:53;;;;;;;4.17;2.67;;;;;;;31.55;33.32;98577.46;513016;1088;103103;-43
2021/06/19 12:21:59;;;;;;;6.40;2.90;;;;;;;30.85;34.55;98577.95;512803;1088;103189;-42
2021/06/19 12:32:17;;;;;;;4.57;3.10;;;;;;;31.48;34.27;98573.86;513028;1089;103525;-45
2021/06/19 12:42:36;;;;;;;3.87;3.53;;;;;;;31.80;33.36;98583.28;512664;1088;103052;-43
2021/06/19 12:53:05;;;;;;;3.47;3.10;;;;;;;31.65;32.73;98565.09;512800;1090;103495;-43
2021/06/19 13:03:16;;;;;;;8.60;3.20;;;;;;;31.58;32.71;98565.78;513047;1090;103163;-44
2021/06/19 13:13:41;;;;;;;6.05;3.15;;;;;;;31.82;32.53;98552.84;513003;1088;103074;-43
2021/06/19 13:23:49;;;;;;;7.83;2.80;;;;;;;31.85;31.44;98528.27;512914;1088;103101;-43
2021/06/19 13:33:59;;;;;;;3.20;2.40;;;;;;;31.60;30.69;98533.41;512550;1089;103460;-43
2021/06/19 13:44:11;;;;;;;5.40;2.85;;;;;;;31.54;31.66;98529.43;512969;1088;103172;-42
2021/06/19 13:54:20;;;;;;;8.40;3.50;;;;;;;31.54;32.47;98536.84;512879;1088;103137;-45
2021/06/19 14:04:29;;;;;;;8.10;3.80;;;;;;;31.35;32.80;98527.61;512878;1089;103524;-44
2021/06/19 14:14:37;;;;;;;7.63;3.67;;;;;;;31.52;32.85;98515.35;512916;1088;103060;-43
2021/06/19 14:24:44;;;;;;;4.70;3.10;;;;;;;31.57;32.60;98504.09;512796;1089;103153;-44
2021/06/19 14:34:52;;;;;;;6.50;3.03;;;;;;;31.53;32.20;98508.73;512851;1088;103416;-41
2021/06/19 14:44:59;;;;;;;12.40;3.50;;;;;;;31.37;33.01;98497.98;512904;1090;103145;-44
2021/06/19 14:55:13;;;;;;;8.60;3.83;;;;;;;31.43;33.23;98499.22;512951;1088;103169;-43
2021/06/19 15:05:22;;;;;;;6.83;4.23;;;;;;;31.25;33.51;98497.44;512904;1088;103134;-43
2021/06/19 15:15:28;;;;;;;8.73;4.40;;;;;;;31.06;33.75;98468.27;512815;1088;103104;-42
2021/06/19 15:25:37;;;;;;;4.95;4.45;;;;;;;30.95;33.41;98473.56;512881;1089;103410;-41
2021/06/19 15:35:45;;;;;;;5.53;3.97;;;;;;;30.70;34.49;98469.68;512804;1088;103473;-44
2021/06/19 15:45:53;;;;;;;4.13;3.17;;;;;;;30.62;34.39;98463.34;512985;1088;103356;-42
2021/06/19 15:56:01;;;;;;;7.47;4.07;;;;;;;30.58;34.74;98457.01;512837;1088;103140;-43
2021/06/19 16:06:12;;;;;;;6.57;3.67;;;;;;;30.35;35.16;98453.52;512912;1092;104187;-43
2021/06/19 16:16:20;;;;;;;12.90;3.80;;;;;;;30.35;35.38;98453.52;512899;1088;103131;-43
2021/06/19 16:26:28;;;;;;;8.03;4.60;;;;;;;30.22;36.18;98442.78;512886;1089;103445;-42
2021/06/19 16:36:36;;;;;;;7.30;4.10;;;;;;;29.98;36.37;98448.56;512816;1089;103193;-42
2021/06/19 16:46:44;;;;;;;12.60;4.60;;;;;;;29.75;36.70;98458.64;512678;1089;103605;-43
2021/06/19 16:56:53;;;;;;;4.67;4.27;;;;;;;29.61;37.14;98459.96;512731;1089;103451;-43
2021/06/19 17:07:01;;;;;;;7.53;4.93;;;;;;;29.49;37.80;98460.09;512892;1089;103496;-43
2021/06/19 17:17:09;;;;;;;5.87;4.63;;;;;;;29.25;38.43;98472.02;512825;1088;104257;-42
2021/06/19 17:27:18;;;;;;;7.10;5.20;;;;;;;28.98;38.63;98471.05;513225;1089;103156;-44
2021/06/19 17:37:26;;;;;;;9.53;5.10;;;;;;;28.75;38.54;98489.14;512715;1090;103140;-44
2021/06/19 17:47:34;;;;;;;10.40;5.10;;;;;;;28.53;39.35;98496.00;512661;1088;103122;-44
2021/06/19 17:57:41;;;;;;;7.53;5.63;;;;;;;28.39;40.10;98501.08;512678;1089;103154;-45
2021/06/19 18:07:49;;;;;;;13.87;7.90;;;;;;;28.15;40.31;98512.86;512744;1089;103604;-42
2021/06/19 18:17:58;;;;;;;9.00;6.23;;;;;;;27.89;41.30;98490.80;512927;1088;103166;-43
2021/06/19 18:28:04;;;;;;;10.05;8.35;;;;;;;27.70;41.48;98494.98;512808;1088;103116;-42
2021/06/19 18:38:13;;;;;;;11.43;7.47;;;;;;;27.42;41.99;98496.83;512873;1088;103099;-44
2021/06/19 18:48:19;;;;;;;11.47;8.70;;;;;;;27.14;42.20;98497.58;512883;1089;103119;-43
2021/06/19 18:58:32;;;;;;;11.17;8.23;;;;;;;26.88;43.21;98497.13;512812;1089;103106;-43
2021/06/19 19:08:40;;;;;;;11.03;7.47;;;;;;;26.58;43.99;98500.07;512962;1089;103456;-42
2021/06/19 19:18:46;;;;;;;9.93;8.47;;;;;;;26.05;44.48;98516.44;512978;1088;103500;-44
2021/06/19 19:28:54;;;;;;;9.73;8.33;;;;;;;25.59;45.45;98515.54;512859;1089;103485;-43
2021/06/19 19:39:00;;;;;;;14.80;9.33;;;;;;;25.05;46.50;98521.62;512737;1090;103115;-42
2021/06/19 19:49:08;;;;;;;14.00;11.97;;;;;;;24.85;47.44;98537.79;512778;1089;103472;-41
2021/06/19 19:59:18;;;;;;;15.13;11.60;;;;;;;24.51;48.32;98527.89;512677;1090;103125;-42
2021/06/19 20:09:27;;;;;;;16.83;11.33;;;;;;;24.26;49.01;98524.13;512661;1088;103457;-43
2021/06/19 20:19:40;;;;;;;13.57;11.57;;;;;;;24.09;49.66;98511.44;512695;1088;103572;-43
2021/06/19 20:29:47;;;;;;;49.90;13.60;;;;;;;23.81;50.22;98522.60;512981;1089;103134;-44
2021/06/19 20:40:13;;;;;;;16.83;13.93;;;;;;;23.53;51.14;98516.70;512714;1088;103495;-42
2021/06/19 21:00:29;;;;;;;19.53;11.80;;;;;;;23.26;52.57;98512.41;513145;1089;103119;-44
2021/06/19 21:10:37;;;;;;;20.07;13.83;;;;;;;23.02;52.91;98519.34;512732;1088;103102;-43
2021/06/19 21:20:45;;;;;;;17.60;12.93;;;;;;;22.79;53.83;98529.39;512699;1089;103444;-43
2021/06/19 21:30:53;;;;;;;17.00;10.80;;;;;;;22.80;53.75;98539.06;512898;1090;103128;-43
2021/06/19 21:41:01;;;;;;;15.47;10.87;;;;;;;22.86;54.42;98538.63;512746;1088;103453;-43
2021/06/19 22:01:16;;;;;;;16.75;10.65;;;;;;;23.04;54.98;98517.91;513126;1089;103501;-42
2021/06/19 22:21:30;;;;;;;;;;;;;;;22.97;55.49;98514.89;512762;1088;103103;-43
2021/06/19 22:31:38;;;;;;;16.20;12.37;;;;;;;22.88;55.95;98519.45;512693;1089;103171;-42
2021/06/19 22:41:43;;;;;;;;;;;;;;;22.73;56.10;98509.88;512707;1088;103116;-44
2021/06/19 22:51:51;;;;;;;16.55;9.95;;;;;;;22.86;56.33;98508.19;512748;1089;103073;-42
2021/06/19 23:01:57;;;;;;;;;;;;;;;22.96;56.01;98494.43;512806;1091;103122;-44
2021/06/19 23:12:05;;;;;;;15.47;10.40;;;;;;;22.81;55.94;98498.34;512506;1092;103384;-43
2021/06/19 23:22:14;;;;;;;13.57;9.87;;;;;;;22.67;56.19;98490.33;512723;1088;103131;-43
2021/06/19 23:32:23;;;;;;;16.10;10.47;;;;;;;22.64;55.68;98488.27;512694;1089;103071;-43
2021/06/19 23:42:30;;;;;;;13.73;9.63;;;;;;;22.08;55.90;98482.78;512974;1088;103122;-43
2021/06/19 23:52:36;;;;;;;;;;;;;;;22.03;56.90;98468.32;512813;1088;103149;-43
